sensor_id;sensor_type;location;lat;lon;timestamp;pressure;altitude;pressure_sealevel;temperature;humidity
48390;BME280;34643;47.964;7.982;2023-02-04T00:00:58;98183.03;;;16.60;55.66
48390;BME280;34643;47.964;7.982;2023-02-04T00:05:59;98178.88;;;16.56;55.64
48390;BME280;34643;47.964;7.982;2023-02-04T00:10:59;98185.09;;;16.53;55.71
48390;BME280;34643;47.964;7.982;2023-02-04T00:16:00;98173.84;;;16.52;55.77
48390;BME280;34643;47.964;7.982;2023-02-04T00:21:00;98167.88;;;16.50;55.62
48390;BME280;34643;47.964;7.982;2023-02-04T00:26:00;98179.34;;;16.46;55.82
48390;BME280;34643;47.964;7.982;2023-02-04T00:31:01;98172.44;;;16.45;55.65
48390;BME280;34643;47.964;7.982;2023-02-04T00:36:01;98170.75;;;16.44;55.62
48390;BME280;34643;47.964;7.982;2023-02-04T00:41:01;98167.38;;;16.42;55.69
48390;BME280;34643;47.964;7.982;2023-02-04T00:46:01;98155.25;;;16.41;55.63
48390;BME280;34643;47.964;7.982;2023-02-04T00:51:02;98153.59;;;16.40;55.50
48390;BME280;34643;47.964;7.982;2023-02-04T00:56:02;98142.53;;;16.35;55.71
48390;BME280;34643;47.964;7.982;2023-02-04T01:01:03;98145.91;;;16.37;55.53
48390;BME280;34643;47.964;7.982;2023-02-04T01:06:03;98145.16;;;16.35;55.68
48390;BME280;34643;47.964;7.982;2023-02-04T01:11:05;98148.66;;;16.34;55.53
48390;BME280;34643;47.964;7.982;2023-02-04T01:16:05;98157.34;;;16.34;55.44
48390;BME280;34643;47.964;7.982;2023-02-04T01:21:06;98164.34;;;16.32;55.62
48390;BME280;34643;47.964;7.982;2023-02-04T01:26:06;98157.56;;;16.30;55.58
48390;BME280;34643;47.964;7.982;2023-02-04T01:31:06;98153.34;;;16.27;55.60
48390;BME280;34643;47.964;7.982;2023-02-04T01:36:07;98165.56;;;16.25;55.66
48390;BME280;34643;47.964;7.982;2023-02-04T01:41:09;98157.06;;;16.22;55.54
48390;BME280;34643;47.964;7.982;2023-02-04T01:46:09;98157.13;;;16.20;55.60
48390;BME280;34643;47.964;7.982;2023-02-04T01:51:10;98162.50;;;16.17;55.73
48390;BME280;34643;47.964;7.982;2023-02-04T01:56:15;98166.84;;;16.16;55.66
48390;BME280;34643;47.964;7.982;2023-02-04T02:01:36;98169.63;;;16.13;55.79
48390;BME280;34643;47.964;7.982;2023-02-04T02:06:37;98160.19;;;16.11;55.66
48390;BME280;34643;47.964;7.982;2023-02-04T02:11:38;98148.16;;;16.08;55.93
48390;BME280;34643;47.964;7.982;2023-02-04T02:16:39;98148.22;;;16.07;55.77
48390;BME280;34643;47.964;7.982;2023-02-04T02:21:51;98151.66;;;16.07;55.86
48390;BME280;34643;47.964;7.982;2023-02-04T02:26:54;98148.28;;;16.05;55.67
48390;BME280;34643;47.964;7.982;2023-02-04T02:31:57;98144.84;;;16.05;55.66
48390;BME280;34643;47.964;7.982;2023-02-04T02:36:59;98138.88;;;16.03;55.65
48390;BME280;34643;47.964;7.982;2023-02-04T02:42:00;98138.94;;;16.01;55.79
48390;BME280;34643;47.964;7.982;2023-02-04T02:47:01;98127.75;;;15.99;55.74
48390;BME280;34643;47.964;7.982;2023-02-04T02:52:01;98122.56;;;15.99;55.75
48390;BME280;34643;47.964;7.982;2023-02-04T02:57:01;98124.38;;;15.97;55.61
48390;BME280;34643;47.964;7.982;2023-02-04T03:02:02;98136.63;;;15.95;55.78
48390;BME280;34643;47.964;7.982;2023-02-04T03:07:06;98134.94;;;15.94;55.80
48390;BME280;34643;47.964;7.982;2023-02-04T03:12:07;98138.44;;;15.93;55.87
48390;BME280;34643;47.964;7.982;2023-02-04T03:17:09;98125.50;;;15.91;55.71
48390;BME280;34643;47.964;7.982;2023-02-04T03:22:10;98138.53;;;15.91;55.77
48390;BME280;34643;47.964;7.982;2023-02-04T03:27:12;98136.91;;;15.89;55.65
48390;BME280;34643;47.964;7.982;2023-02-04T03:32:13;98145.50;;;15.91;55.77
48390;BME280;34643;47.964;7.982;2023-02-04T03:37:13;98144.03;;;15.85;55.66
48390;BME280;34643;47.964;7.982;2023-02-04T03:42:13;98149.16;;;15.87;55.61
48390;BME280;34643;47.964;7.982;2023-02-04T03:47:14;98136.22;;;15.85;55.66
48390;BME280;34643;47.964;7.982;2023-02-04T03:52:14;98130.31;;;15.82;55.78
48390;BME280;34643;47.964;7.982;2023-02-04T03:57:14;98135.44;;;15.83;55.76
48390;BME280;34643;47.964;7.982;2023-02-04T04:02:15;98141.34;;;15.87;55.63
48390;BME280;34643;47.964;7.982;2023-02-04T04:07:15;98138.59;;;15.90;55.53
48390;BME280;34643;47.964;7.982;2023-02-04T04:12:15;98148.09;;;15.91;55.53
48390;BME280;34643;47.964;7.982;2023-02-04T04:17:16;98150.56;;;15.94;55.42
48390;BME280;34643;47.964;7.982;2023-02-04T04:22:16;98154.91;;;15.93;55.51
48390;BME280;34643;47.964;7.982;2023-02-04T04:27:16;98154.16;;;15.91;55.42
48390;BME280;34643;47.964;7.982;2023-02-04T04:32:17;98150.69;;;15.91;55.52
48390;BME280;34643;47.964;7.982;2023-02-04T04:37:17;98148.94;;;15.91;55.38
48390;BME280;34643;47.964;7.982;2023-02-04T04:42:17;98154.06;;;15.93;55.17
48390;BME280;34643;47.964;7.982;2023-02-04T04:47:17;98155.91;;;15.91;55.42
48390;BME280;34643;47.964;7.982;2023-02-04T04:52:18;98156.03;;;15.88;55.50
48390;BME280;34643;47.964;7.982;2023-02-04T04:57:18;98160.41;;;15.87;55.66
48390;BME280;34643;47.964;7.982;2023-02-04T05:02:18;98144.88;;;15.86;55.48
48390;BME280;34643;47.964;7.982;2023-02-04T05:07:18;98151.00;;;15.85;55.62
48390;BME280;34643;47.964;7.982;2023-02-04T05:12:19;98153.75;;;15.82;55.48
48390;BME280;34643;47.964;7.982;2023-02-04T05:17:19;98156.41;;;15.80;55.81
48390;BME280;34643;47.964;7.982;2023-02-04T05:22:19;98159.09;;;15.78;55.68
48390;BME280;34643;47.964;7.982;2023-02-04T05:27:20;98159.09;;;15.78;55.64
48390;BME280;34643;47.964;7.982;2023-02-04T05:32:20;98155.66;;;15.78;55.57
48390;BME280;34643;47.964;7.982;2023-02-04T05:37:20;98158.38;;;15.75;55.75
48390;BME280;34643;47.964;7.982;2023-02-04T05:42:21;98160.09;;;15.76;55.67
48390;BME280;34643;47.964;7.982;2023-02-04T05:47:21;98167.97;;;15.74;55.71
48390;BME280;34643;47.964;7.982;2023-02-04T05:52:21;98165.38;;;15.73;55.75
48390;BME280;34643;47.964;7.982;2023-02-04T05:57:21;98162.84;;;15.71;55.72
48390;BME280;34643;47.964;7.982;2023-02-04T06:02:22;98160.25;;;15.71;55.67
48390;BME280;34643;47.964;7.982;2023-02-04T06:07:22;98170.72;;;15.70;55.69
48390;BME280;34643;47.964;7.982;2023-02-04T06:12:22;98168.19;;;15.68;55.70
48390;BME280;34643;47.964;7.982;2023-02-04T06:17:23;98171.66;;;15.69;55.75
48390;BME280;34643;47.964;7.982;2023-02-04T06:22:23;98186.28;;;15.71;55.61
48390;BME280;34643;47.964;7.982;2023-02-04T06:27:24;98181.00;;;15.73;55.71
48390;BME280;34643;47.964;7.982;2023-02-04T06:32:25;98195.53;;;15.78;55.51
48390;BME280;34643;47.964;7.982;2023-02-04T06:37:25;98189.44;;;15.80;55.51
48390;BME280;34643;47.964;7.982;2023-02-04T06:42:25;98189.25;;;15.83;55.34
48390;BME280;34643;47.964;7.982;2023-02-04T06:47:26;98188.28;;;15.85;55.54
48390;BME280;34643;47.964;7.982;2023-02-04T06:52:26;98208.06;;;15.89;55.77
48390;BME280;34643;47.964;7.982;2023-02-04T06:57:26;98210.09;;;15.83;55.74
48390;BME280;34643;47.964;7.982;2023-02-04T07:02:27;98211.03;;;15.82;55.77
48390;BME280;34643;47.964;7.982;2023-02-04T07:07:27;98216.22;;;15.82;55.93
48390;BME280;34643;47.964;7.982;2023-02-04T07:12:27;98213.75;;;15.78;55.95
48390;BME280;34643;47.964;7.982;2023-02-04T07:17:28;98217.28;;;15.77;56.39
48390;BME280;34643;47.964;7.982;2023-02-04T07:22:28;98226.84;;;15.77;55.95
48390;BME280;34643;47.964;7.982;2023-02-04T07:27:28;98232.09;;;15.75;56.09
48390;BME280;34643;47.964;7.982;2023-02-04T07:32:29;98235.41;;;15.79;55.91
48390;BME280;34643;47.964;7.982;2023-02-04T07:37:32;98241.69;;;15.75;56.02
48390;BME280;34643;47.964;7.982;2023-02-04T07:42:32;98248.75;;;15.71;56.08
48390;BME280;34643;47.964;7.982;2023-02-04T07:47:40;98243.47;;;15.73;56.08
48390;BME280;34643;47.964;7.982;2023-02-04T07:52:40;98239.78;;;15.78;55.97
48390;BME280;34643;47.964;7.982;2023-02-04T07:57:41;98250.91;;;15.82;56.15
48390;BME280;34643;47.964;7.982;2023-02-04T08:02:42;98258.78;;;15.81;56.10
48390;BME280;34643;47.964;7.982;2023-02-04T08:07:43;98265.69;;;15.82;56.23
48390;BME280;34643;47.964;7.982;2023-02-04T08:12:43;98272.66;;;15.81;56.33
48390;BME280;34643;47.964;7.982;2023-02-04T08:17:43;98265.81;;;15.78;56.43
48390;BME280;34643;47.964;7.982;2023-02-04T08:22:44;98258.94;;;15.77;56.48
48390;BME280;34643;47.964;7.982;2023-02-04T08:27:44;98268.44;;;15.78;56.64
48390;BME280;34643;47.964;7.982;2023-02-04T08:32:44;98267.66;;;15.76;56.43
48390;BME280;34643;47.964;7.982;2023-02-04T08:37:45;98274.69;;;15.74;56.56
48390;BME280;34643;47.964;7.982;2023-02-04T08:42:45;98274.78;;;15.71;56.64
48390;BME280;34643;47.964;7.982;2023-02-04T08:47:45;98274.19;;;15.65;56.65
48390;BME280;34643;47.964;7.982;2023-02-04T08:52:46;98288.97;;;15.64;56.81
48390;BME280;34643;47.964;7.982;2023-02-04T08:57:46;98284.56;;;15.66;56.49
48390;BME280;34643;47.964;7.982;2023-02-04T09:02:46;98287.03;;;15.69;56.32
48390;BME280;34643;47.964;7.982;2023-02-04T09:07:46;98292.00;;;15.74;56.34
48390;BME280;34643;47.964;7.982;2023-02-04T09:12:47;98299.59;;;15.80;56.35
48390;BME280;34643;47.964;7.982;2023-02-04T09:17:47;98306.41;;;15.83;56.49
48390;BME280;34643;47.964;7.982;2023-02-04T09:22:47;98311.00;;;15.77;56.39
48390;BME280;34643;47.964;7.982;2023-02-04T09:27:49;98311.97;;;15.75;56.59
48390;BME280;34643;47.964;7.982;2023-02-04T09:32:49;98315.41;;;15.75;56.49
48390;BME280;34643;47.964;7.982;2023-02-04T09:37:49;98324.09;;;15.76;56.42
48390;BME280;34643;47.964;7.982;2023-02-04T09:42:50;98331.97;;;15.74;56.33
48390;BME280;34643;47.964;7.982;2023-02-04T09:47:51;98342.38;;;15.74;56.34
48390;BME280;34643;47.964;7.982;2023-02-04T09:52:53;98338.97;;;15.72;56.23
48390;BME280;34643;47.964;7.982;2023-02-04T09:57:54;98346.91;;;15.69;56.33
48390;BME280;34643;47.964;7.982;2023-02-04T10:02:56;98345.13;;;15.70;56.34
48390;BME280;34643;47.964;7.982;2023-02-04T10:07:59;98352.09;;;15.69;56.26
48390;BME280;34643;47.964;7.982;2023-02-04T10:13:00;98355.41;;;15.74;56.22
48390;BME280;34643;47.964;7.982;2023-02-04T10:18:02;98356.59;;;15.86;56.57
48390;BME280;34643;47.964;7.982;2023-02-04T10:23:08;98354.00;;;15.86;56.65
48390;BME280;34643;47.964;7.982;2023-02-04T10:28:09;98354.22;;;15.82;56.71
48390;BME280;34643;47.964;7.982;2023-02-04T10:33:14;98350.84;;;15.80;56.71
48390;BME280;34643;47.964;7.982;2023-02-04T10:38:14;98345.63;;;15.80;56.75
48390;BME280;34643;47.964;7.982;2023-02-04T10:43:21;98337.81;;;15.80;56.50
48390;BME280;34643;47.964;7.982;2023-02-04T10:48:21;98334.34;;;15.79;56.48
48390;BME280;34643;47.964;7.982;2023-02-04T10:53:22;98335.16;;;15.81;56.55
48390;BME280;34643;47.964;7.982;2023-02-04T10:58:41;98336.41;;;14.40;55.90
48390;BME280;34643;47.964;7.982;2023-02-04T11:03:42;98342.97;;;12.99;58.09
48390;BME280;34643;47.964;7.982;2023-02-04T11:08:42;98345.91;;;13.68;56.90
48390;BME280;34643;47.964;7.982;2023-02-04T11:24:53;98339.34;;;15.43;54.59
48390;BME280;34643;47.964;7.982;2023-02-04T11:30:03;98339.28;;;15.44;54.85
48390;BME280;34643;47.964;7.982;2023-02-04T11:35:05;98335.69;;;15.47;54.81
48390;BME280;34643;47.964;7.982;2023-02-04T11:40:19;98337.34;;;15.49;55.00
48390;BME280;34643;47.964;7.982;2023-02-04T11:45:21;98342.44;;;15.51;55.15
48390;BME280;34643;47.964;7.982;2023-02-04T11:50:25;98341.50;;;15.53;55.22
48390;BME280;34643;47.964;7.982;2023-02-04T11:55:25;98341.44;;;15.55;55.23
48390;BME280;34643;47.964;7.982;2023-02-04T12:00:28;98341.44;;;15.55;55.35
48390;BME280;34643;47.964;7.982;2023-02-04T12:05:34;98342.34;;;15.54;55.43
48390;BME280;34643;47.964;7.982;2023-02-04T12:10:35;98337.97;;;15.54;55.55
48390;BME280;34643;47.964;7.982;2023-02-04T12:15:35;98332.63;;;15.57;55.72
48390;BME280;34643;47.964;7.982;2023-02-04T12:20:35;98329.19;;;15.57;55.80
48390;BME280;34643;47.964;7.982;2023-02-04T12:25:36;98340.44;;;15.57;55.94
48390;BME280;34643;47.964;7.982;2023-02-04T12:30:36;98342.22;;;15.57;55.83
48390;BME280;34643;47.964;7.982;2023-02-04T12:35:36;98347.28;;;15.60;55.76
48390;BME280;34643;47.964;7.982;2023-02-04T12:40:37;98344.69;;;15.60;55.99
48390;BME280;34643;47.964;7.982;2023-02-04T12:45:37;98341.16;;;15.61;56.08
48390;BME280;34643;47.964;7.982;2023-02-04T12:50:39;98346.38;;;15.61;56.06
48390;BME280;34643;47.964;7.982;2023-02-04T12:55:39;98343.75;;;15.61;56.10
48390;BME280;34643;47.964;7.982;2023-02-04T13:00:39;98349.03;;;15.59;56.16
48390;BME280;34643;47.964;7.982;2023-02-04T13:05:41;98355.09;;;15.60;56.23
48390;BME280;34643;47.964;7.982;2023-02-04T13:10:41;98360.31;;;15.60;56.32
48390;BME280;34643;47.964;7.982;2023-02-04T13:15:42;98351.72;;;15.58;56.22
48390;BME280;34643;47.964;7.982;2023-02-04T13:20:42;98358.59;;;15.59;56.46
48390;BME280;34643;47.964;7.982;2023-02-04T13:25:42;98346.53;;;15.58;56.35
48390;BME280;34643;47.964;7.982;2023-02-04T13:30:44;98360.44;;;15.57;56.50
48390;BME280;34643;47.964;7.982;2023-02-04T13:35:44;98356.94;;;15.58;56.52
48390;BME280;34643;47.964;7.982;2023-02-04T13:40:44;98362.13;;;15.58;56.45
48390;BME280;34643;47.964;7.982;2023-02-04T13:45:44;98359.59;;;15.56;56.65
48390;BME280;34643;47.964;7.982;2023-02-04T13:50:47;98370.91;;;15.55;56.72
48390;BME280;34643;47.964;7.982;2023-02-04T13:55:49;98364.81;;;15.56;56.60
48390;BME280;34643;47.964;7.982;2023-02-04T14:00:49;98371.78;;;15.54;56.70
48390;BME280;34643;47.964;7.982;2023-02-04T14:05:50;98366.53;;;15.56;56.62
48390;BME280;34643;47.964;7.982;2023-02-04T14:10:50;98370.97;;;15.54;56.60
48390;BME280;34643;47.964;7.982;2023-02-04T14:15:50;98385.75;;;15.53;56.79
48390;BME280;34643;47.964;7.982;2023-02-04T14:20:51;98399.59;;;15.54;56.79
48390;BME280;34643;47.964;7.982;2023-02-04T14:25:51;98407.44;;;15.52;56.83
48390;BME280;34643;47.964;7.982;2023-02-04T14:30:52;98399.66;;;15.52;56.81
48390;BME280;34643;47.964;7.982;2023-02-04T14:35:53;98410.13;;;15.51;56.93
48390;BME280;34643;47.964;7.982;2023-02-04T14:40:54;98401.47;;;15.50;56.85
48390;BME280;34643;47.964;7.982;2023-02-04T14:45:54;98400.63;;;15.50;56.84
48390;BME280;34643;47.964;7.982;2023-02-04T14:50:54;98404.13;;;15.49;56.84
48390;BME280;34643;47.964;7.982;2023-02-04T14:55:54;98409.34;;;15.49;56.98
48390;BME280;34643;47.964;7.982;2023-02-04T15:00:55;98417.19;;;15.47;56.81
48390;BME280;34643;47.964;7.982;2023-02-04T15:05:55;98415.47;;;15.48;56.81
48390;BME280;34643;47.964;7.982;2023-02-04T15:10:55;98412.09;;;15.46;57.02
48390;BME280;34643;47.964;7.982;2023-02-04T15:15:56;98406.88;;;15.46;56.86
48390;BME280;34643;47.964;7.982;2023-02-04T15:20:56;98412.94;;;15.46;56.97
48390;BME280;34643;47.964;7.982;2023-02-04T15:25:56;98417.34;;;15.44;56.95
48390;BME280;34643;47.964;7.982;2023-02-04T15:30:56;98415.59;;;15.45;57.06
48390;BME280;34643;47.964;7.982;2023-02-04T15:35:57;98413.97;;;15.42;56.96
48390;BME280;34643;47.964;7.982;2023-02-04T15:40:57;98421.84;;;15.40;57.03
48390;BME280;34643;47.964;7.982;2023-02-04T15:45:57;98423.50;;;15.42;57.02
48390;BME280;34643;47.964;7.982;2023-02-04T15:50:58;98429.63;;;15.40;57.11
48390;BME280;34643;47.964;7.982;2023-02-04T15:55:58;98429.69;;;15.39;57.14
48390;BME280;34643;47.964;7.982;2023-02-04T16:00:58;98433.19;;;15.38;57.09
48390;BME280;34643;47.964;7.982;2023-02-04T16:05:59;98430.66;;;15.36;57.15
48390;BME280;34643;47.964;7.982;2023-02-04T16:10:59;98442.75;;;15.37;57.01
48390;BME280;34643;47.964;7.982;2023-02-04T16:15:59;98440.28;;;15.34;57.01
48390;BME280;34643;47.964;7.982;2023-02-04T16:21:00;98439.38;;;15.35;57.00
48390;BME280;34643;47.964;7.982;2023-02-04T16:26:00;98435.94;;;15.35;57.19
48390;BME280;34643;47.964;7.982;2023-02-04T16:31:00;98438.59;;;15.33;56.94
48390;BME280;34643;47.964;7.982;2023-02-04T16:36:01;98442.09;;;15.32;57.03
48390;BME280;34643;47.964;7.982;2023-02-04T16:41:02;98444.69;;;15.32;57.19
48390;BME280;34643;47.964;7.982;2023-02-04T16:46:02;98457.75;;;15.31;57.13
48390;BME280;34643;47.964;7.982;2023-02-04T16:51:03;98456.13;;;15.28;57.18
48390;BME280;34643;47.964;7.982;2023-02-04T16:56:03;98461.28;;;15.30;57.13
48390;BME280;34643;47.964;7.982;2023-02-04T17:01:04;98459.69;;;15.26;57.12
48390;BME280;34643;47.964;7.982;2023-02-04T17:06:05;98470.81;;;15.29;56.98
48390;BME280;34643;47.964;7.982;2023-02-04T17:11:05;98463.16;;;15.26;57.22
48390;BME280;34643;47.964;7.982;2023-02-04T17:16:24;98469.25;;;15.25;57.17
48390;BME280;34643;47.964;7.982;2023-02-04T17:21:25;98494.28;;;15.28;57.15
48390;BME280;34643;47.964;7.982;2023-02-04T17:26:25;98491.84;;;15.25;57.08
48390;BME280;34643;47.964;7.982;2023-02-04T17:31:25;98490.97;;;15.24;57.05
48390;BME280;34643;47.964;7.982;2023-02-04T17:36:26;98497.09;;;15.23;56.98
48390;BME280;34643;47.964;7.982;2023-02-04T17:41:26;98491.88;;;15.23;57.09
48390;BME280;34643;47.964;7.982;2023-02-04T17:46:26;98488.50;;;15.21;57.15
48390;BME280;34643;47.964;7.982;2023-02-04T17:51:27;98502.34;;;15.21;57.00
48390;BME280;34643;47.964;7.982;2023-02-04T17:56:27;98491.88;;;15.23;57.15
48390;BME280;34643;47.964;7.982;2023-02-04T18:01:27;98504.09;;;15.21;57.15
48390;BME280;34643;47.964;7.982;2023-02-04T18:06:28;98508.53;;;15.19;57.21
48390;BME280;34643;47.964;7.982;2023-02-04T18:11:35;98512.84;;;15.18;57.10
48390;BME280;34643;47.964;7.982;2023-02-04T18:16:36;98517.22;;;15.18;57.15
48390;BME280;34643;47.964;7.982;2023-02-04T18:21:38;98516.34;;;15.19;57.25
48390;BME280;34643;47.964;7.982;2023-02-04T18:26:43;98521.63;;;15.16;57.16
48390;BME280;34643;47.964;7.982;2023-02-04T18:31:48;98516.44;;;15.16;57.32
48390;BME280;34643;47.964;7.982;2023-02-04T18:36:50;98518.19;;;15.15;57.26
48390;BME280;34643;47.964;7.982;2023-02-04T18:41:50;98519.94;;;15.15;57.04
48390;BME280;34643;47.964;7.982;2023-02-04T18:46:50;98522.59;;;15.13;57.28
48390;BME280;34643;47.964;7.982;2023-02-04T18:51:51;98521.75;;;15.13;57.14
48390;BME280;34643;47.964;7.982;2023-02-04T18:56:51;98529.59;;;15.11;57.25
48390;BME280;34643;47.964;7.982;2023-02-04T19:01:52;98521.75;;;15.13;57.26
48390;BME280;34643;47.964;7.982;2023-02-04T19:06:53;98535.69;;;15.12;57.09
48390;BME280;34643;47.964;7.982;2023-02-04T19:11:54;98534.81;;;15.11;57.21
48390;BME280;34643;47.964;7.982;2023-02-04T19:16:57;98548.72;;;15.10;57.13
48390;BME280;34643;47.964;7.982;2023-02-04T19:22:22;98541.81;;;15.09;57.37
48390;BME280;34643;47.964;7.982;2023-02-04T19:27:28;98529.72;;;15.08;57.30
48390;BME280;34643;47.964;7.982;2023-02-04T19:32:43;98537.59;;;15.07;57.17
48390;BME280;34643;47.964;7.982;2023-02-04T19:37:46;98529.84;;;15.05;57.14
48390;BME280;34643;47.964;7.982;2023-02-04T19:42:47;98538.50;;;15.06;57.32
48390;BME280;34643;47.964;7.982;2023-02-04T19:47:47;98527.31;;;15.04;57.27
48390;BME280;34643;47.964;7.982;2023-02-04T19:52:49;98522.94;;;15.04;57.15
48390;BME280;34643;47.964;7.982;2023-02-04T19:57:52;98532.50;;;15.04;57.18
48390;BME280;34643;47.964;7.982;2023-02-04T20:02:54;98529.91;;;15.04;57.13
48390;BME280;34643;47.964;7.982;2023-02-04T20:07:59;98536.03;;;15.01;57.31
48390;BME280;34643;47.964;7.982;2023-02-04T20:13:11;98549.00;;;15.02;57.08
48390;BME280;34643;47.964;7.982;2023-02-04T20:18:17;98551.72;;;14.99;57.32
48390;BME280;34643;47.964;7.982;2023-02-04T20:23:29;98556.94;;;14.99;57.33
48390;BME280;34643;47.964;7.982;2023-02-04T20:28:40;98563.91;;;14.97;57.39
48390;BME280;34643;47.964;7.982;2023-02-04T20:33:48;98563.91;;;14.97;57.21
48390;BME280;34643;47.964;7.982;2023-02-04T20:38:49;98561.41;;;14.96;57.37
48390;BME280;34643;47.964;7.982;2023-02-04T20:43:51;98561.44;;;14.94;57.29
48390;BME280;34643;47.964;7.982;2023-02-04T20:48:52;98566.81;;;14.90;57.48
48390;BME280;34643;47.964;7.982;2023-02-04T20:53:53;98570.09;;;14.95;57.41
48390;BME280;34643;47.964;7.982;2023-02-04T21:04:17;98581.47;;;14.92;57.42
48390;BME280;34643;47.964;7.982;2023-02-04T21:09:29;98579.00;;;14.88;57.51
48390;BME280;34643;47.964;7.982;2023-02-04T21:14:30;98581.66;;;14.86;57.57
48390;BME280;34643;47.964;7.982;2023-02-04T21:19:30;98585.16;;;14.85;57.46
48390;BME280;34643;47.964;7.982;2023-02-04T21:24:32;98574.88;;;14.82;57.47
48390;BME280;34643;47.964;7.982;2023-02-04T21:29:33;98572.38;;;14.79;57.54
48390;BME280;34643;47.964;7.982;2023-02-04T21:34:33;98589.50;;;14.85;57.40
48390;BME280;34643;47.964;7.982;2023-02-04T21:39:33;98600.75;;;14.85;57.51
48390;BME280;34643;47.964;7.982;2023-02-04T21:44:34;98599.06;;;14.84;57.54
48390;BME280;34643;47.964;7.982;2023-02-04T21:49:34;98591.22;;;14.86;57.29
48390;BME280;34643;47.964;7.982;2023-02-04T21:54:34;98595.56;;;14.85;57.33
48390;BME280;34643;47.964;7.982;2023-02-04T21:59:35;98602.56;;;14.83;57.28
48390;BME280;34643;47.964;7.982;2023-02-04T22:04:35;98604.31;;;14.82;57.37
48390;BME280;34643;47.964;7.982;2023-02-04T22:09:35;98599.06;;;14.84;57.32
48390;BME280;34643;47.964;7.982;2023-02-04T22:14:35;98590.47;;;14.82;57.43
48390;BME280;34643;47.964;7.982;2023-02-04T22:19:36;98591.38;;;14.81;57.43
48390;BME280;34643;47.964;7.982;2023-02-04T22:24:36;98593.97;;;14.81;57.28
48390;BME280;34643;47.964;7.982;2023-02-04T22:29:36;98595.69;;;14.82;57.24
48390;BME280;34643;47.964;7.982;2023-02-04T22:34:36;98583.69;;;14.78;57.31
48390;BME280;34643;47.964;7.982;2023-02-04T22:39:37;98590.59;;;14.79;57.41
48390;BME280;34643;47.964;7.982;2023-02-04T22:44:37;98584.50;;;14.80;57.21
48390;BME280;34643;47.964;7.982;2023-02-04T22:49:37;98586.28;;;14.78;57.26
48390;BME280;34643;47.964;7.982;2023-02-04T22:54:38;98587.19;;;14.77;57.47
48390;BME280;34643;47.964;7.982;2023-02-04T22:59:39;98588.09;;;14.76;57.37
48390;BME280;34643;47.964;7.982;2023-02-04T23:04:39;98582.16;;;14.72;57.42
48390;BME280;34643;47.964;7.982;2023-02-04T23:09:40;98593.41;;;14.73;57.32
48390;BME280;34643;47.964;7.982;2023-02-04T23:14:44;98603.81;;;14.73;57.47
48390;BME280;34643;47.964;7.982;2023-02-04T23:19:44;98610.00;;;14.69;57.36
48390;BME280;34643;47.964;7.982;2023-02-04T23:24:45;98598.81;;;14.67;57.56
48390;BME280;34643;47.964;7.982;2023-02-04T23:29:45;98600.56;;;14.66;57.38
48390;BME280;34643;47.964;7.982;2023-02-04T23:34:45;98593.72;;;14.63;57.55
48390;BME280;34643;47.964;7.982;2023-02-04T23:39:45;98583.31;;;14.63;57.51
48390;BME280;34643;47.964;7.982;2023-02-04T23:44:50;98583.44;;;14.60;57.51
48390;BME280;34643;47.964;7.982;2023-02-04T23:49:50;98597.22;;;14.62;57.79
48390;BME280;34643;47.964;7.982;2023-02-04T23:54:50;98595.56;;;14.60;57.74
48390;BME280;34643;47.964;7.982;2023-02-04T23:59:50;98597.28;;;14.61;57.66
